FKKR

Garoua International Airport

Garoua, Cameroon
METAR FKKR 231000Z 28008KT 8000 NSC 37/16 Q1008 NOSIG
Observed Flight Rules
Feb-23 @ 10:00 UTC (32 minutes ago) Marginal Visual Flight Rules
Wind Visibility Clouds
280° at 8 knots 7,998 meters
  • Clear skies
Temperatures Readings
Current 37°C / 99°F
Dewpoint 16°C / 61°F
Humidity 29%
Altimeter 29.76" Hg
Pressure 1008 hPa
Elevation 244
METAR FKKR 231000Z 28008KT 8000 NSC 37/16 Q1008 NOSIG
Observed Flight Rules
Feb-23 @ 10:00 UTC
(32 minutes ago)
MVFR
Wind Visibility
280° at 8 knots 7,998 meters
Clouds
  • Clear skies
Temperature Dewpoint
37°C / 99°F 16°C / 61°F
Humidity Altimeter Pressure
29% 29.76" Hg 1008 hPa